createdAt,value
2017-05-24T00:00:46.158Z,0
2017-05-24T00:01:54.247Z,0
2017-05-24T00:03:02.331Z,0
2017-05-24T00:04:10.420Z,0
2017-05-24T00:05:18.500Z,0
2017-05-24T00:06:26.713Z,0
2017-05-24T00:07:34.680Z,0
2017-05-24T00:08:42.819Z,0
2017-05-24T00:09:50.847Z,0
2017-05-24T00:10:58.937Z,0
2017-05-24T00:12:07.048Z,0
2017-05-24T00:13:15.108Z,0
2017-05-24T00:14:23.193Z,0
2017-05-24T00:15:31.279Z,0
2017-05-24T00:16:39.370Z,0
2017-05-24T00:17:47.453Z,0
2017-05-24T00:18:55.542Z,0
2017-05-24T00:20:03.625Z,0
2017-05-24T00:21:11.722Z,0
2017-05-24T00:22:19.801Z,0
2017-05-24T00:23:27.910Z,0
2017-05-24T00:24:35.971Z,0
2017-05-24T00:25:44.059Z,0
2017-05-24T00:26:52.143Z,0
2017-05-24T00:28:00.231Z,0
2017-05-24T00:29:08.318Z,0
2017-05-24T00:30:16.408Z,0
2017-05-24T00:31:24.491Z,0
2017-05-24T00:32:32.576Z,0
2017-05-24T00:33:40.666Z,0
2017-05-24T00:34:48.757Z,0
2017-05-24T00:35:56.957Z,0
2017-05-24T00:37:04.921Z,0
2017-05-24T00:38:13.009Z,0
2017-05-24T00:39:21.095Z,0
2017-05-24T00:40:29.183Z,0
2017-05-24T00:41:37.282Z,0
2017-05-24T00:42:45.354Z,0
2017-05-24T00:43:53.439Z,0
2017-05-24T00:45:01.528Z,0
2017-05-24T00:46:09.613Z,0
2017-05-24T00:47:17.699Z,0
2017-05-24T00:48:25.786Z,0
2017-05-24T00:49:33.873Z,0
2017-05-24T00:50:41.961Z,0
2017-05-24T00:51:50.047Z,0
2017-05-24T00:52:58.136Z,0
2017-05-24T00:54:06.218Z,0
2017-05-24T00:55:14.306Z,0
2017-05-24T00:56:22.391Z,0
2017-05-24T00:57:30.477Z,0
2017-05-24T00:58:38.564Z,0
2017-05-24T00:59:46.648Z,0
2017-05-24T01:00:54.769Z,0
2017-05-24T01:02:02.831Z,0
2017-05-24T01:03:10.912Z,0
2017-05-24T01:04:18.995Z,0
2017-05-24T01:05:27.104Z,0
2017-05-24T01:06:35.168Z,0
2017-05-24T01:07:43.253Z,0
2017-05-24T01:08:51.341Z,0
2017-05-24T01:09:59.446Z,0
2017-05-24T01:11:07.514Z,0
2017-05-24T01:12:15.605Z,0
2017-05-24T01:13:23.713Z,0
2017-05-24T01:14:31.783Z,0
2017-05-24T01:15:39.857Z,0
2017-05-24T01:16:47.946Z,0
2017-05-24T01:17:56.033Z,0
2017-05-24T01:19:04.119Z,0
2017-05-24T01:20:12.214Z,0
2017-05-24T01:21:20.293Z,0
2017-05-24T01:22:28.382Z,0
2017-05-24T01:23:36.465Z,0
2017-05-24T01:24:44.552Z,0
2017-05-24T01:25:52.644Z,0
2017-05-24T01:27:00.730Z,0
2017-05-24T01:28:08.817Z,0
2017-05-24T01:29:16.904Z,0
2017-05-24T01:30:24.989Z,0
2017-05-24T01:31:33.077Z,0
2017-05-24T01:32:41.162Z,0
2017-05-24T01:33:49.247Z,0
2017-05-24T01:34:57.346Z,0
2017-05-24T01:36:05.421Z,0
2017-05-24T01:37:13.507Z,0
2017-05-24T01:38:21.644Z,0
2017-05-24T01:39:29.693Z,0
2017-05-24T01:40:37.766Z,0
2017-05-24T01:41:45.852Z,0
2017-05-24T01:42:53.943Z,0
2017-05-24T01:44:02.024Z,0
2017-05-24T01:45:10.110Z,0
2017-05-24T01:46:18.196Z,0
2017-05-24T01:47:26.283Z,0
2017-05-24T01:48:34.370Z,0
2017-05-24T01:49:42.463Z,0
2017-05-24T01:50:50.542Z,0
2017-05-24T01:51:58.636Z,0
2017-05-24T01:53:06.716Z,0
2017-05-24T01:54:14.803Z,0
2017-05-24T01:55:22.888Z,0
2017-05-24T01:56:30.975Z,0
2017-05-24T01:57:39.062Z,0
2017-05-24T01:58:47.155Z,0
2017-05-24T01:59:55.232Z,0
2017-05-24T02:01:03.326Z,0
2017-05-24T02:02:11.403Z,0
2017-05-24T02:03:19.491Z,0
2017-05-24T02:04:27.583Z,0
2017-05-24T02:05:35.674Z,0
2017-05-24T02:06:43.758Z,0
2017-05-24T02:07:51.844Z,0
2017-05-24T02:08:59.932Z,0
2017-05-24T02:10:08.018Z,0
2017-05-24T02:11:16.103Z,0
2017-05-24T02:12:24.191Z,0
2017-05-24T02:13:32.274Z,0
2017-05-24T02:14:40.361Z,0
2017-05-24T02:15:48.450Z,0
2017-05-24T02:16:56.553Z,0
2017-05-24T02:18:04.628Z,0
2017-05-24T02:19:12.721Z,0
2017-05-24T02:20:20.815Z,0
2017-05-24T02:21:28.908Z,0
2017-05-24T02:22:36.987Z,0
2017-05-24T02:23:45.073Z,0
2017-05-24T02:24:53.159Z,0
2017-05-24T02:26:01.243Z,0
2017-05-24T02:27:09.330Z,0
2017-05-24T02:28:17.419Z,0
2017-05-24T02:29:25.527Z,0
2017-05-24T02:30:33.591Z,0
2017-05-24T02:31:41.679Z,0
2017-05-24T02:32:49.884Z,0
2017-05-24T02:33:57.850Z,0
2017-05-24T02:35:05.940Z,0
2017-05-24T02:36:14.021Z,0
2017-05-24T02:37:22.108Z,0
2017-05-24T02:38:30.194Z,0
2017-05-24T02:39:38.281Z,0
2017-05-24T02:40:46.369Z,0
2017-05-24T02:41:54.452Z,0
2017-05-24T02:43:02.538Z,0
2017-05-24T02:44:10.624Z,0
2017-05-24T02:45:18.719Z,0
2017-05-24T02:46:26.800Z,0
2017-05-24T02:47:34.885Z,0
2017-05-24T02:48:42.971Z,0
2017-05-24T02:49:51.056Z,0
2017-05-24T02:50:59.141Z,0
2017-05-24T02:52:07.229Z,0
2017-05-24T02:53:15.315Z,0
2017-05-24T02:54:23.399Z,0
2017-05-24T02:55:31.486Z,0
2017-05-24T02:56:39.571Z,0
2017-05-24T02:57:47.664Z,0
2017-05-24T02:58:55.743Z,0
2017-05-24T03:00:03.831Z,0
2017-05-24T03:01:11.917Z,0
2017-05-24T03:02:20.005Z,0
2017-05-24T03:03:28.111Z,0
2017-05-24T03:04:36.173Z,0
2017-05-24T03:05:44.259Z,0
2017-05-24T03:06:52.346Z,0
2017-05-24T03:08:00.432Z,0
2017-05-24T03:09:08.568Z,0
2017-05-24T03:10:16.604Z,0
2017-05-24T03:11:24.700Z,0
2017-05-24T03:12:32.781Z,0
2017-05-24T03:13:40.892Z,0
2017-05-24T03:14:48.948Z,0
2017-05-24T03:15:57.034Z,0
2017-05-24T03:17:05.121Z,0
2017-05-24T03:18:13.231Z,0
2017-05-24T03:19:21.294Z,0
2017-05-24T03:20:29.382Z,0
2017-05-24T03:21:37.468Z,0
2017-05-24T03:22:45.552Z,0
2017-05-24T03:23:53.638Z,0
2017-05-24T03:25:01.727Z,0
2017-05-24T03:26:09.847Z,0
2017-05-24T03:27:17.897Z,0
2017-05-24T03:28:25.993Z,0
2017-05-24T03:29:34.084Z,0
2017-05-24T03:30:42.160Z,0
2017-05-24T03:31:50.246Z,0
2017-05-24T03:32:58.340Z,0
2017-05-24T03:34:06.417Z,0
2017-05-24T03:35:14.504Z,0
2017-05-24T03:36:22.590Z,0
2017-05-24T03:37:30.678Z,0
2017-05-24T03:38:38.764Z,0
2017-05-24T03:39:46.852Z,0
2017-05-24T03:40:55.242Z,0
2017-05-24T03:42:03.021Z,0
2017-05-24T03:43:11.200Z,0
2017-05-24T03:44:19.198Z,0
2017-05-24T03:45:27.285Z,0
2017-05-24T03:46:35.373Z,0
2017-05-24T03:47:43.456Z,0
2017-05-24T03:48:51.543Z,4
2017-05-24T03:49:59.642Z,0
2017-05-24T03:51:08.110Z,0
2017-05-24T03:52:15.806Z,0
2017-05-24T03:53:23.900Z,0
2017-05-24T03:54:31.977Z,0
2017-05-24T03:55:40.063Z,4
2017-05-24T03:56:48.171Z,4
2017-05-24T03:57:56.239Z,4
2017-05-24T03:59:04.875Z,0
2017-05-24T04:00:12.505Z,0
2017-05-24T04:01:20.598Z,0
2017-05-24T04:02:28.576Z,0
2017-05-24T04:03:36.673Z,0
2017-05-24T04:04:44.752Z,4
2017-05-24T04:05:52.842Z,4
2017-05-24T04:07:00.948Z,4
2017-05-24T04:08:09.010Z,4
2017-05-24T04:09:17.096Z,0
2017-05-24T04:10:25.212Z,0
2017-05-24T04:11:33.266Z,4
2017-05-24T04:12:42.359Z,4
2017-05-24T04:13:49.692Z,4
2017-05-24T04:14:57.526Z,0
2017-05-24T04:16:05.618Z,0
2017-05-24T04:17:13.706Z,4
2017-05-24T04:18:21.791Z,4
2017-05-24T04:19:29.900Z,4
2017-05-24T04:20:37.961Z,0
2017-05-24T04:21:46.048Z,4
2017-05-24T04:22:54.133Z,4
2017-05-24T04:24:02.274Z,4
2017-05-24T04:25:10.551Z,4
2017-05-24T04:26:18.397Z,4
2017-05-24T04:27:26.620Z,4
2017-05-24T04:28:34.566Z,4
2017-05-24T04:29:42.653Z,8
2017-05-24T04:30:51.294Z,4
2017-05-24T04:31:59.521Z,4
2017-05-24T04:33:06.913Z,8
2017-05-24T04:34:15.003Z,4
2017-05-24T04:35:23.269Z,4
2017-05-24T04:36:31.705Z,8
2017-05-24T04:37:39.264Z,8
2017-05-24T04:38:47.344Z,8
2017-05-24T04:39:55.430Z,4
2017-05-24T04:41:03.514Z,4
2017-05-24T04:42:11.602Z,4
2017-05-24T04:43:19.713Z,4
2017-05-24T04:44:27.792Z,4
2017-05-24T04:45:35.861Z,4
2017-05-24T04:46:43.945Z,4
2017-05-24T04:47:52.031Z,8
2017-05-24T04:49:00.117Z,8
2017-05-24T04:50:08.439Z,4
2017-05-24T04:51:16.288Z,8
2017-05-24T04:52:24.374Z,8
2017-05-24T04:53:32.462Z,8
2017-05-24T04:54:40.547Z,8
2017-05-24T04:55:48.642Z,8
2017-05-24T04:56:56.722Z,8
2017-05-24T04:58:04.807Z,8
2017-05-24T04:59:12.897Z,8
2017-05-24T05:00:21.002Z,8
2017-05-24T05:01:29.064Z,8
2017-05-24T05:02:37.151Z,8
2017-05-24T05:03:45.239Z,8
2017-05-24T05:04:53.323Z,8
2017-05-24T05:06:01.411Z,8
2017-05-24T05:07:09.499Z,8
2017-05-24T05:08:17.583Z,8
2017-05-24T05:09:25.666Z,8
2017-05-24T05:10:33.753Z,8
2017-05-24T05:11:41.839Z,12
2017-05-24T05:12:49.936Z,8
2017-05-24T05:13:58.014Z,8
2017-05-24T05:15:06.108Z,8
2017-05-24T05:16:14.187Z,12
2017-05-24T05:17:22.272Z,8
2017-05-24T05:18:30.357Z,8
2017-05-24T05:19:38.447Z,12
2017-05-24T05:20:46.529Z,12
2017-05-24T05:21:54.629Z,12
2017-05-24T05:23:02.718Z,12
2017-05-24T05:24:10.790Z,12
2017-05-24T05:25:18.875Z,12
2017-05-24T05:26:26.960Z,12
2017-05-24T05:27:35.047Z,16
2017-05-24T05:28:43.134Z,12
2017-05-24T05:29:51.219Z,16
2017-05-24T05:30:59.302Z,16
2017-05-24T05:32:07.389Z,16
2017-05-24T05:33:15.476Z,16
2017-05-24T05:34:23.563Z,20
2017-05-24T05:35:31.650Z,16
2017-05-24T05:36:39.744Z,20
2017-05-24T05:37:47.822Z,16
2017-05-24T05:38:55.907Z,16
2017-05-24T05:40:03.992Z,16
2017-05-24T05:41:12.081Z,16
2017-05-24T05:42:20.165Z,16
2017-05-24T05:43:28.252Z,16
2017-05-24T05:44:36.339Z,16
2017-05-24T05:45:44.425Z,16
2017-05-24T05:46:52.517Z,16
2017-05-24T05:48:00.596Z,16
2017-05-24T05:49:08.690Z,16
2017-05-24T05:50:16.778Z,16
2017-05-24T05:51:24.856Z,20
2017-05-24T05:52:32.941Z,16
2017-05-24T05:53:41.027Z,16
2017-05-24T05:54:49.119Z,20
2017-05-24T05:55:57.206Z,16
2017-05-24T05:57:05.293Z,20
2017-05-24T05:58:13.379Z,20
2017-05-24T05:59:21.465Z,20
2017-05-24T06:00:29.549Z,20
2017-05-24T06:01:37.637Z,20
2017-05-24T06:02:45.725Z,20
2017-05-24T06:03:53.810Z,20
2017-05-24T06:05:01.957Z,20
2017-05-24T06:06:09.985Z,20
2017-05-24T06:07:18.067Z,20
2017-05-24T06:08:26.154Z,20
2017-05-24T06:09:34.241Z,20
2017-05-24T06:10:42.324Z,20
2017-05-24T06:11:50.412Z,20
2017-05-24T06:12:58.500Z,20
2017-05-24T06:14:06.588Z,20
2017-05-24T06:15:14.676Z,20
2017-05-24T06:16:22.769Z,20
2017-05-24T06:17:30.849Z,20
2017-05-24T06:18:38.937Z,20
2017-05-24T06:19:47.022Z,20
2017-05-24T06:20:55.134Z,24
2017-05-24T06:22:03.200Z,20
2017-05-24T06:23:11.283Z,20
2017-05-24T06:24:19.367Z,20
2017-05-24T06:25:27.450Z,20
2017-05-24T06:26:35.538Z,20
2017-05-24T06:27:43.628Z,20
2017-05-24T06:28:51.711Z,20
2017-05-24T06:29:59.796Z,20
2017-05-24T06:31:07.894Z,20
2017-05-24T06:32:15.970Z,20
2017-05-24T06:33:24.058Z,24
2017-05-24T06:34:32.142Z,20
2017-05-24T06:35:40.258Z,20
2017-05-24T06:36:48.314Z,20
2017-05-24T06:37:56.402Z,20
2017-05-24T06:39:04.489Z,20
2017-05-24T06:40:12.572Z,24
2017-05-24T06:41:20.657Z,20
2017-05-24T06:42:28.752Z,24
2017-05-24T06:43:36.864Z,32
2017-05-24T06:44:44.928Z,32
2017-05-24T06:45:53.010Z,36
2017-05-24T06:47:01.108Z,40
2017-05-24T06:48:09.185Z,40
2017-05-24T06:49:17.269Z,44
2017-05-24T06:50:25.359Z,44
2017-05-24T06:51:33.487Z,44
2017-05-24T06:52:41.532Z,48
2017-05-24T06:53:49.619Z,40
2017-05-24T06:54:57.706Z,44
2017-05-24T06:56:05.792Z,36
2017-05-24T06:57:13.881Z,40
2017-05-24T06:58:21.969Z,36
2017-05-24T06:59:30.061Z,44
2017-05-24T07:00:38.138Z,44
2017-05-24T07:01:46.224Z,44
2017-05-24T07:02:54.308Z,44
2017-05-24T07:04:02.396Z,40
2017-05-24T07:05:10.488Z,40
2017-05-24T07:06:18.578Z,44
2017-05-24T07:07:26.657Z,40
2017-05-24T07:08:34.744Z,40
2017-05-24T07:09:42.832Z,44
2017-05-24T07:10:50.916Z,44
2017-05-24T07:11:59.005Z,44
2017-05-24T07:13:07.090Z,44
2017-05-24T07:14:15.177Z,44
2017-05-24T07:15:23.262Z,48
2017-05-24T07:16:31.348Z,48
2017-05-24T07:17:39.434Z,48
2017-05-24T07:18:47.532Z,44
2017-05-24T07:19:55.604Z,44
2017-05-24T07:21:03.690Z,48
2017-05-24T07:22:11.777Z,48
2017-05-24T07:23:19.863Z,52
2017-05-24T07:24:27.950Z,48
2017-05-24T07:25:36.038Z,48
2017-05-24T07:26:44.122Z,48
2017-05-24T07:27:52.208Z,48
2017-05-24T07:29:00.292Z,48
2017-05-24T07:30:08.379Z,48
2017-05-24T07:31:16.467Z,52
2017-05-24T07:32:24.553Z,44
2017-05-24T07:33:32.639Z,48
2017-05-24T07:34:40.724Z,52
2017-05-24T07:35:48.815Z,52
2017-05-24T07:36:56.898Z,52
2017-05-24T07:38:04.984Z,52
2017-05-24T07:39:13.069Z,52
2017-05-24T07:40:21.155Z,52
2017-05-24T07:41:29.241Z,56
2017-05-24T07:42:37.329Z,52
2017-05-24T07:43:45.415Z,52
2017-05-24T07:44:53.502Z,52
2017-05-24T07:46:01.643Z,52
2017-05-24T07:47:09.678Z,52
2017-05-24T07:48:17.772Z,52
2017-05-24T07:49:25.853Z,52
2017-05-24T07:50:33.938Z,52
2017-05-24T07:51:42.023Z,52
2017-05-24T07:52:50.110Z,48
2017-05-24T07:53:58.199Z,48
2017-05-24T07:55:06.299Z,52
2017-05-24T07:56:14.375Z,52
2017-05-24T07:57:22.463Z,52
2017-05-24T07:58:30.548Z,48
2017-05-24T07:59:38.635Z,48
2017-05-24T08:00:46.723Z,44
2017-05-24T08:01:54.808Z,48
2017-05-24T08:03:02.968Z,48
2017-05-24T08:04:10.984Z,44
2017-05-24T08:05:19.070Z,48
2017-05-24T08:06:27.151Z,48
2017-05-24T08:07:35.238Z,48
2017-05-24T08:08:43.333Z,48
2017-05-24T08:09:51.415Z,48
2017-05-24T08:10:59.500Z,48
2017-05-24T08:12:07.584Z,48
2017-05-24T08:13:15.674Z,48
2017-05-24T08:14:23.760Z,48
2017-05-24T08:15:31.853Z,48
2017-05-24T08:16:39.931Z,44
2017-05-24T08:17:48.018Z,48
2017-05-24T08:18:56.105Z,48
2017-05-24T08:20:04.192Z,48
2017-05-24T08:21:12.280Z,48
2017-05-24T08:22:20.366Z,48
2017-05-24T08:23:28.452Z,44
2017-05-24T08:24:36.540Z,44
2017-05-24T08:25:44.625Z,44
2017-05-24T08:26:52.769Z,48
2017-05-24T08:28:00.797Z,44
2017-05-24T08:29:08.886Z,40
2017-05-24T08:30:16.974Z,44
2017-05-24T08:31:25.060Z,44
2017-05-24T08:32:33.146Z,44
2017-05-24T08:33:41.236Z,40
2017-05-24T08:34:49.321Z,44
2017-05-24T08:35:57.408Z,40
2017-05-24T08:37:05.492Z,40
2017-05-24T08:38:13.586Z,40
2017-05-24T08:39:21.692Z,40
2017-05-24T08:40:29.762Z,40
2017-05-24T08:41:37.841Z,40
2017-05-24T08:42:45.930Z,40
2017-05-24T08:43:54.016Z,40
2017-05-24T08:45:02.102Z,40
2017-05-24T08:46:10.189Z,40
2017-05-24T08:47:18.277Z,36
2017-05-24T08:48:26.365Z,36
2017-05-24T08:49:34.446Z,40
2017-05-24T08:50:42.538Z,40
2017-05-24T08:51:50.623Z,36
2017-05-24T08:52:58.711Z,36
2017-05-24T08:54:06.797Z,40
2017-05-24T08:55:14.887Z,40
2017-05-24T08:56:23.001Z,40
2017-05-24T08:57:31.057Z,36
2017-05-24T08:58:39.145Z,40
2017-05-24T08:59:47.230Z,40
2017-05-24T09:00:55.318Z,40
2017-05-24T09:02:03.408Z,36
2017-05-24T09:03:11.491Z,36
2017-05-24T09:04:19.583Z,40
2017-05-24T09:05:27.665Z,40
2017-05-24T09:06:35.758Z,40
2017-05-24T09:07:43.864Z,36
2017-05-24T09:08:52.048Z,36
2017-05-24T09:10:00.013Z,36
2017-05-24T09:11:08.099Z,40
2017-05-24T09:12:16.189Z,40
2017-05-24T09:13:24.279Z,36
2017-05-24T09:14:32.378Z,36
2017-05-24T09:15:40.520Z,36
2017-05-24T09:16:48.534Z,36
2017-05-24T09:17:56.622Z,36
2017-05-24T09:19:04.733Z,36
2017-05-24T09:20:12.795Z,36
2017-05-24T09:21:20.882Z,36
2017-05-24T09:22:28.995Z,36
2017-05-24T09:23:37.061Z,36
2017-05-24T09:24:45.153Z,36
2017-05-24T09:25:53.235Z,36
2017-05-24T09:27:01.381Z,36
2017-05-24T09:28:09.411Z,36
2017-05-24T09:29:17.498Z,36
2017-05-24T09:30:25.591Z,36
2017-05-24T09:31:33.689Z,40
2017-05-24T09:32:41.776Z,40
2017-05-24T09:33:49.858Z,36
2017-05-24T09:34:57.946Z,36
2017-05-24T09:36:06.033Z,36
2017-05-24T09:37:14.120Z,36
2017-05-24T09:38:22.209Z,40
2017-05-24T09:39:30.301Z,40
2017-05-24T09:40:38.386Z,36
2017-05-24T09:41:46.477Z,40
2017-05-24T09:42:54.561Z,40
2017-05-24T09:44:02.664Z,40
2017-05-24T09:45:10.736Z,40
2017-05-24T09:46:18.824Z,40
2017-05-24T09:47:26.911Z,40
2017-05-24T09:48:35.005Z,40
2017-05-24T09:49:43.083Z,40
2017-05-24T09:50:51.171Z,44
2017-05-24T09:51:59.255Z,44
2017-05-24T09:53:07.345Z,44
2017-05-24T09:54:15.432Z,44
2017-05-24T09:55:23.519Z,44
2017-05-24T09:56:31.605Z,40
2017-05-24T09:57:39.701Z,40
2017-05-24T09:58:47.779Z,40
2017-05-24T09:59:55.876Z,40
2017-05-24T10:01:03.976Z,32
2017-05-24T10:02:12.043Z,36
2017-05-24T10:03:20.129Z,36
2017-05-24T10:04:28.249Z,40
2017-05-24T10:05:36.301Z,40
2017-05-24T10:06:44.389Z,44
2017-05-24T10:07:52.476Z,40
2017-05-24T10:09:00.563Z,40
2017-05-24T10:10:08.649Z,40
2017-05-24T10:11:16.735Z,40
2017-05-24T10:12:24.825Z,44
2017-05-24T10:13:32.911Z,44
2017-05-24T10:14:40.995Z,40
2017-05-24T10:15:49.084Z,40
2017-05-24T10:16:57.172Z,40
2017-05-24T10:18:05.261Z,40
2017-05-24T10:19:13.346Z,44
2017-05-24T10:20:21.433Z,40
2017-05-24T10:21:29.520Z,44
2017-05-24T10:22:37.607Z,44
2017-05-24T10:23:45.694Z,40
2017-05-24T10:24:53.786Z,44
2017-05-24T10:26:01.872Z,44
2017-05-24T10:27:09.957Z,40
2017-05-24T10:28:18.101Z,40
2017-05-24T10:29:26.131Z,40
2017-05-24T10:30:34.219Z,40
2017-05-24T10:31:42.368Z,40
2017-05-24T10:32:50.397Z,40
2017-05-24T10:33:58.488Z,40
2017-05-24T10:35:06.569Z,44
2017-05-24T10:36:14.660Z,40
2017-05-24T10:37:22.745Z,40
2017-05-24T10:38:30.830Z,40
2017-05-24T10:39:38.916Z,40
2017-05-24T10:40:47.009Z,40
2017-05-24T10:41:55.088Z,40
2017-05-24T10:43:03.181Z,40
2017-05-24T10:44:11.269Z,40
2017-05-24T10:45:19.356Z,40
2017-05-24T10:46:27.446Z,40
2017-05-24T10:47:35.538Z,40
2017-05-24T10:48:43.617Z,40
2017-05-24T10:49:51.705Z,44
2017-05-24T10:50:59.800Z,40
2017-05-24T10:52:07.880Z,40
2017-05-24T10:53:15.967Z,44
2017-05-24T10:54:24.055Z,40
2017-05-24T10:55:32.142Z,44
2017-05-24T10:56:40.228Z,40
2017-05-24T10:57:48.316Z,44
2017-05-24T10:58:56.401Z,44
2017-05-24T11:00:04.629Z,44
2017-05-24T11:01:12.577Z,40
2017-05-24T11:02:20.808Z,40
2017-05-24T11:03:28.755Z,44
2017-05-24T11:04:36.839Z,44
2017-05-24T11:05:44.938Z,44
2017-05-24T11:06:53.014Z,40
2017-05-24T11:08:01.185Z,40
2017-05-24T11:09:09.187Z,40
2017-05-24T11:10:17.272Z,44
2017-05-24T11:11:25.363Z,40
2017-05-24T11:12:33.449Z,40
2017-05-24T11:13:41.542Z,32
2017-05-24T11:14:49.625Z,32
2017-05-24T11:15:57.711Z,36
2017-05-24T11:17:05.799Z,40
2017-05-24T11:18:13.887Z,40
2017-05-24T11:19:21.971Z,44
2017-05-24T11:20:30.082Z,40
2017-05-24T11:21:38.150Z,44
2017-05-24T11:22:46.235Z,44
2017-05-24T11:23:54.324Z,44
2017-05-24T11:25:02.407Z,44
2017-05-24T11:26:10.498Z,44
2017-05-24T11:27:18.666Z,44
2017-05-24T11:28:26.671Z,48
2017-05-24T11:29:34.769Z,44
2017-05-24T11:30:42.846Z,44
2017-05-24T11:31:50.945Z,48
2017-05-24T11:32:59.021Z,48
2017-05-24T11:34:07.109Z,44
2017-05-24T11:35:15.196Z,36
2017-05-24T11:36:23.283Z,36
2017-05-24T11:37:31.373Z,44
2017-05-24T11:38:39.464Z,40
2017-05-24T11:39:47.543Z,32
2017-05-24T11:40:55.633Z,40
2017-05-24T11:42:03.726Z,40
2017-05-24T11:43:11.808Z,32
2017-05-24T11:44:19.894Z,32
2017-05-24T11:45:27.982Z,40
2017-05-24T11:46:36.075Z,40
2017-05-24T11:47:44.164Z,40
2017-05-24T11:48:52.329Z,40
2017-05-24T11:50:00.336Z,36
2017-05-24T11:51:08.425Z,36
2017-05-24T11:52:16.511Z,40
2017-05-24T11:53:24.673Z,40
2017-05-24T11:54:32.692Z,44
2017-05-24T11:55:40.835Z,36
2017-05-24T11:56:48.867Z,36
2017-05-24T11:57:56.963Z,36
2017-05-24T11:59:05.041Z,36
2017-05-24T12:00:13.125Z,44
2017-05-24T12:01:21.222Z,40
2017-05-24T12:02:29.304Z,44
2017-05-24T12:03:37.392Z,40
2017-05-24T12:04:45.486Z,36
2017-05-24T12:05:53.594Z,36
2017-05-24T12:07:01.660Z,40
2017-05-24T12:08:09.745Z,36
2017-05-24T12:09:17.832Z,36
2017-05-24T12:10:25.921Z,36
2017-05-24T12:11:34.058Z,36
2017-05-24T12:12:42.098Z,36
2017-05-24T12:13:50.182Z,36
2017-05-24T12:14:58.271Z,36
2017-05-24T12:16:06.358Z,40
2017-05-24T12:17:14.445Z,36
2017-05-24T12:18:22.533Z,36
2017-05-24T12:19:30.620Z,36
2017-05-24T12:20:38.718Z,36
2017-05-24T12:21:46.806Z,36
2017-05-24T12:22:54.965Z,32
2017-05-24T12:24:02.968Z,32
2017-05-24T12:25:11.061Z,36
2017-05-24T12:26:19.148Z,40
2017-05-24T12:27:27.232Z,28
2017-05-24T12:28:35.319Z,36
2017-05-24T12:29:43.408Z,36
2017-05-24T12:30:51.498Z,40
2017-05-24T12:31:59.582Z,40
2017-05-24T12:33:07.692Z,36
2017-05-24T12:34:15.754Z,36
2017-05-24T12:35:23.856Z,36
2017-05-24T12:36:31.956Z,32
2017-05-24T12:37:40.018Z,28
2017-05-24T12:38:48.113Z,32
2017-05-24T12:39:56.220Z,24
2017-05-24T12:41:04.283Z,28
2017-05-24T12:42:12.375Z,32
2017-05-24T12:43:20.454Z,32
2017-05-24T12:44:28.540Z,32
2017-05-24T12:45:36.629Z,32
2017-05-24T12:46:44.716Z,32
2017-05-24T12:47:52.812Z,32
2017-05-24T12:49:00.916Z,28
2017-05-24T12:50:08.978Z,28
2017-05-24T12:51:17.067Z,28
2017-05-24T12:52:25.156Z,32
2017-05-24T12:53:33.330Z,32
2017-05-24T12:54:41.329Z,32
2017-05-24T12:55:49.415Z,32
2017-05-24T12:56:57.503Z,36
2017-05-24T12:58:05.588Z,32
2017-05-24T12:59:13.678Z,32
2017-05-24T13:00:21.769Z,32
2017-05-24T13:01:29.852Z,36
2017-05-24T13:02:37.940Z,32
2017-05-24T13:03:46.029Z,24
2017-05-24T13:04:54.115Z,32
2017-05-24T13:06:02.203Z,24
2017-05-24T13:07:10.290Z,24
2017-05-24T13:08:18.380Z,24
2017-05-24T13:09:26.466Z,28
2017-05-24T13:10:34.554Z,28
2017-05-24T13:11:42.640Z,28
2017-05-24T13:12:50.727Z,28
2017-05-24T13:13:58.824Z,28
2017-05-24T13:15:06.903Z,28
2017-05-24T13:16:14.990Z,32
2017-05-24T13:17:23.079Z,32
2017-05-24T13:18:31.167Z,32
2017-05-24T13:19:39.255Z,32
2017-05-24T13:20:47.341Z,32
2017-05-24T13:21:55.431Z,28
2017-05-24T13:23:03.664Z,28
2017-05-24T13:24:11.603Z,32
2017-05-24T13:25:19.688Z,28
2017-05-24T13:26:27.804Z,32
2017-05-24T13:27:35.865Z,32
2017-05-24T13:28:43.959Z,32
2017-05-24T13:29:52.041Z,28
2017-05-24T13:31:00.131Z,32
2017-05-24T13:32:08.221Z,28
2017-05-24T13:33:16.305Z,32
2017-05-24T13:34:24.388Z,28
2017-05-24T13:35:32.477Z,20
2017-05-24T13:36:40.564Z,20
2017-05-24T13:37:48.903Z,20
2017-05-24T13:38:56.740Z,20
2017-05-24T13:40:04.829Z,20
2017-05-24T13:41:13.035Z,20
2017-05-24T13:42:21.009Z,20
2017-05-24T13:43:29.089Z,20
2017-05-24T13:44:37.180Z,20
2017-05-24T13:45:45.264Z,20
2017-05-24T13:46:53.352Z,24
2017-05-24T13:48:01.439Z,24
2017-05-24T13:49:09.532Z,32
2017-05-24T13:50:17.618Z,24
2017-05-24T13:51:25.711Z,24
2017-05-24T13:52:33.791Z,32
2017-05-24T13:53:41.880Z,28
2017-05-24T13:54:49.965Z,32
2017-05-24T13:55:58.062Z,36
2017-05-24T13:57:06.141Z,40
2017-05-24T13:58:14.228Z,36
2017-05-24T13:59:22.317Z,32
2017-05-24T14:00:30.403Z,36
2017-05-24T14:01:38.491Z,36
2017-05-24T14:02:46.577Z,36
2017-05-24T14:03:54.665Z,40
2017-05-24T14:05:02.752Z,40
2017-05-24T14:06:10.898Z,28
2017-05-24T14:07:18.960Z,40
2017-05-24T14:08:27.016Z,28
2017-05-24T14:09:35.112Z,24
2017-05-24T14:10:43.199Z,28
2017-05-24T14:11:51.288Z,28
2017-05-24T14:12:59.373Z,28
2017-05-24T14:14:07.460Z,28
2017-05-24T14:15:15.548Z,32
2017-05-24T14:16:23.639Z,24
2017-05-24T14:17:31.723Z,24
2017-05-24T14:18:39.819Z,24
2017-05-24T14:19:47.904Z,32
2017-05-24T14:20:56.053Z,32
2017-05-24T14:22:04.104Z,28
2017-05-24T14:23:12.165Z,28
2017-05-24T14:24:20.255Z,28
2017-05-24T14:25:28.340Z,28
2017-05-24T14:26:36.432Z,32
2017-05-24T14:27:44.523Z,32
2017-05-24T14:28:52.610Z,28
2017-05-24T14:30:00.704Z,24
2017-05-24T14:31:08.782Z,20
2017-05-24T14:32:16.870Z,24
2017-05-24T14:33:24.960Z,24
2017-05-24T14:34:33.049Z,24
2017-05-24T14:35:41.134Z,24
2017-05-24T14:36:49.221Z,20
2017-05-24T14:37:57.309Z,32
2017-05-24T14:39:05.398Z,20
2017-05-24T14:40:13.488Z,20
2017-05-24T14:41:21.573Z,20
2017-05-24T14:42:29.686Z,20
2017-05-24T14:43:37.749Z,20
2017-05-24T14:44:45.839Z,20
2017-05-24T14:45:53.925Z,20
2017-05-24T14:47:02.014Z,20
2017-05-24T14:48:10.104Z,20
2017-05-24T14:49:18.281Z,20
2017-05-24T14:50:26.795Z,20
2017-05-24T14:51:34.363Z,16
2017-05-24T14:52:42.449Z,20
2017-05-24T14:53:50.545Z,16
2017-05-24T14:54:58.634Z,28
2017-05-24T14:56:06.713Z,28
2017-05-24T14:57:14.800Z,28
2017-05-24T14:58:22.887Z,24
2017-05-24T14:59:30.973Z,28
2017-05-24T15:00:39.060Z,32
2017-05-24T15:01:47.148Z,32
2017-05-24T15:02:55.237Z,28
2017-05-24T15:04:03.333Z,28
2017-05-24T15:05:11.411Z,20
2017-05-24T15:06:19.504Z,20
2017-05-24T15:07:27.589Z,16
2017-05-24T15:08:35.675Z,20
2017-05-24T15:09:43.786Z,24
2017-05-24T15:10:51.851Z,16
2017-05-24T15:11:59.943Z,16
2017-05-24T15:13:08.024Z,24
2017-05-24T15:14:16.113Z,28
2017-05-24T15:15:24.224Z,24
2017-05-24T15:16:32.289Z,24
2017-05-24T15:17:40.380Z,28
2017-05-24T15:18:48.468Z,16
2017-05-24T15:19:56.553Z,20
2017-05-24T15:21:04.645Z,24
2017-05-24T15:22:12.742Z,24
2017-05-24T15:23:20.825Z,24
2017-05-24T15:24:28.908Z,24
2017-05-24T15:25:36.994Z,16
2017-05-24T15:26:45.082Z,20
2017-05-24T15:27:53.168Z,20
2017-05-24T15:29:01.255Z,16
2017-05-24T15:30:09.346Z,20
2017-05-24T15:31:17.432Z,20
2017-05-24T15:32:25.519Z,20
2017-05-24T15:33:33.607Z,20
2017-05-24T15:34:41.699Z,24
2017-05-24T15:35:49.785Z,20
2017-05-24T15:36:57.873Z,24
2017-05-24T15:38:05.982Z,20
2017-05-24T15:39:14.045Z,20
2017-05-24T15:40:22.134Z,20
2017-05-24T15:41:30.222Z,20
2017-05-24T15:42:38.308Z,20
2017-05-24T15:43:46.399Z,20
2017-05-24T15:44:54.484Z,20
2017-05-24T15:46:02.574Z,24
2017-05-24T15:47:10.661Z,24
2017-05-24T15:48:18.746Z,20
2017-05-24T15:49:26.857Z,24
2017-05-24T15:50:34.919Z,24
2017-05-24T15:51:43.032Z,24
2017-05-24T15:52:51.097Z,20
2017-05-24T15:53:59.185Z,20
2017-05-24T15:55:07.269Z,20
2017-05-24T15:56:15.362Z,20
2017-05-24T15:57:23.446Z,20
2017-05-24T15:58:31.555Z,24
2017-05-24T15:59:39.621Z,24
2017-05-24T16:00:47.710Z,24
2017-05-24T16:01:55.797Z,24
2017-05-24T16:03:03.886Z,20
2017-05-24T16:04:11.973Z,24
2017-05-24T16:05:20.066Z,24
2017-05-24T16:06:28.154Z,24
2017-05-24T16:07:36.242Z,20
2017-05-24T16:08:44.338Z,20
2017-05-24T16:09:52.416Z,20
2017-05-24T16:11:00.505Z,20
2017-05-24T16:12:08.591Z,20
2017-05-24T16:13:16.690Z,20
2017-05-24T16:14:24.769Z,16
2017-05-24T16:15:32.864Z,16
2017-05-24T16:16:40.943Z,16
2017-05-24T16:17:49.028Z,16
2017-05-24T16:18:57.117Z,16
2017-05-24T16:20:05.204Z,20
2017-05-24T16:21:13.292Z,16
2017-05-24T16:22:21.382Z,16